createdAt,value
2018-08-22T00:00:53.009Z,22.30
2018-08-22T00:03:21.500Z,22.30
2018-08-22T00:05:49.896Z,22.20
2018-08-22T00:08:22.576Z,22.20
2018-08-22T00:10:51.014Z,22.20
2018-08-22T00:13:19.464Z,22.20
2018-08-22T00:15:47.923Z,22.20
2018-08-22T00:18:16.384Z,22.10
2018-08-22T00:20:44.849Z,22.10
2018-08-22T00:23:13.184Z,22.10
2018-08-22T00:25:41.628Z,22.10
2018-08-22T00:28:10.198Z,22.10
2018-08-22T00:30:38.609Z,22.00
2018-08-22T00:33:07.092Z,22.00
2018-08-22T00:35:35.590Z,22.00
2018-08-22T00:38:04.104Z,21.90
2018-08-22T00:40:32.489Z,21.90
2018-08-22T00:43:00.856Z,21.90
2018-08-22T00:45:29.268Z,21.90
2018-08-22T00:47:57.714Z,21.90
2018-08-22T00:50:26.161Z,21.80
2018-08-22T00:52:54.598Z,21.80
2018-08-22T00:55:23.121Z,21.80
2018-08-22T00:57:51.684Z,21.70
2018-08-22T01:00:20.085Z,21.70
2018-08-22T01:02:48.465Z,21.70
2018-08-22T01:05:16.928Z,21.80
2018-08-22T01:07:45.470Z,21.80
2018-08-22T01:10:13.966Z,21.80
2018-08-22T01:12:42.389Z,21.80
2018-08-22T01:15:10.943Z,21.80
2018-08-22T01:17:39.401Z,21.80
2018-08-22T01:20:08.251Z,21.80
2018-08-22T01:22:36.905Z,21.80
2018-08-22T01:25:05.492Z,21.70
2018-08-22T01:27:33.928Z,21.80
2018-08-22T01:30:02.345Z,21.70
2018-08-22T01:32:30.832Z,21.70
2018-08-22T01:34:59.370Z,21.70
2018-08-22T01:37:27.858Z,21.70
2018-08-22T01:39:56.264Z,21.70
2018-08-22T01:42:24.709Z,21.70
2018-08-22T01:44:53.182Z,21.70
2018-08-22T01:47:21.585Z,21.70
2018-08-22T01:49:50.074Z,21.60
2018-08-22T01:52:18.577Z,21.60
2018-08-22T01:54:47.098Z,21.60
2018-08-22T01:57:15.556Z,21.60
2018-08-22T01:59:43.969Z,21.60
2018-08-22T02:02:12.418Z,21.60
2018-08-22T02:04:40.845Z,21.60
2018-08-22T02:07:09.276Z,21.60
2018-08-22T02:09:38.989Z,21.60
2018-08-22T02:12:07.501Z,21.60
2018-08-22T02:14:35.972Z,21.70
2018-08-22T02:17:04.468Z,21.70
2018-08-22T02:19:32.961Z,21.70
2018-08-22T02:22:01.444Z,21.70
2018-08-22T02:24:29.800Z,21.60
2018-08-22T02:26:58.220Z,21.60
2018-08-22T02:29:26.767Z,21.60
2018-08-22T02:31:55.211Z,21.60
2018-08-22T02:34:23.637Z,21.60
2018-08-22T02:36:52.069Z,21.60
2018-08-22T02:39:20.504Z,21.60
2018-08-22T02:41:48.942Z,21.60
2018-08-22T02:44:17.385Z,21.60
2018-08-22T02:46:45.892Z,21.60
2018-08-22T02:49:15.345Z,21.50
2018-08-22T02:51:43.790Z,21.60
2018-08-22T02:54:12.316Z,21.50
2018-08-22T02:56:40.860Z,21.60
2018-08-22T02:59:09.347Z,21.50
2018-08-22T03:01:37.865Z,21.50
2018-08-22T03:04:06.357Z,21.50
2018-08-22T03:06:34.860Z,21.50
2018-08-22T03:09:03.254Z,21.50
2018-08-22T03:11:31.696Z,21.40
2018-08-22T03:14:00.090Z,21.40
2018-08-22T03:16:28.521Z,21.30
2018-08-22T03:18:57.405Z,21.30
2018-08-22T03:21:25.793Z,21.30
2018-08-22T03:23:54.458Z,21.20
2018-08-22T03:26:22.976Z,21.20
2018-08-22T03:28:51.392Z,21.20
2018-08-22T03:31:20.153Z,21.10
2018-08-22T03:33:48.681Z,21.10
2018-08-22T03:36:17.114Z,21.10
2018-08-22T03:38:45.578Z,21.10
2018-08-22T03:41:14.056Z,21.00
2018-08-22T03:43:42.904Z,21.00
2018-08-22T03:46:11.447Z,20.90
2018-08-22T03:48:39.900Z,20.90
2018-08-22T03:51:08.850Z,20.90
2018-08-22T03:53:37.310Z,20.90
2018-08-22T03:56:05.840Z,20.80
2018-08-22T03:58:34.267Z,20.80
2018-08-22T04:01:03.037Z,20.70
2018-08-22T04:03:31.627Z,20.70
2018-08-22T04:05:59.968Z,20.60
2018-08-22T04:08:28.469Z,20.60
2018-08-22T04:10:56.869Z,20.60
2018-08-22T04:13:25.345Z,20.60
2018-08-22T04:15:53.812Z,20.50
2018-08-22T04:18:22.258Z,20.50
2018-08-22T04:20:50.672Z,20.50
2018-08-22T04:23:19.151Z,20.60
2018-08-22T04:25:47.556Z,20.60
2018-08-22T04:28:16.041Z,20.60
2018-08-22T04:30:44.476Z,20.60
2018-08-22T04:33:13.013Z,20.60
2018-08-22T04:35:41.472Z,20.50
2018-08-22T04:38:09.942Z,20.60
2018-08-22T04:40:38.790Z,20.50
2018-08-22T04:43:07.220Z,20.50
2018-08-22T04:45:35.633Z,20.50
2018-08-22T04:48:04.085Z,20.40
2018-08-22T04:50:32.546Z,20.40
2018-08-22T04:53:00.890Z,20.40
2018-08-22T04:55:29.322Z,20.40
2018-08-22T04:57:57.807Z,20.40
2018-08-22T05:00:26.272Z,20.40
2018-08-22T05:02:54.704Z,20.40
2018-08-22T05:05:23.556Z,20.40
2018-08-22T05:07:52.146Z,20.40
2018-08-22T05:10:20.602Z,20.40
2018-08-22T05:12:49.068Z,20.40
2018-08-22T05:15:17.493Z,20.40
2018-08-22T05:17:45.941Z,20.40
2018-08-22T05:20:14.438Z,20.40
2018-08-22T05:22:43.110Z,20.40
2018-08-22T05:25:11.601Z,20.40
2018-08-22T05:27:40.057Z,20.40
2018-08-22T05:30:09.028Z,20.30
2018-08-22T05:32:37.545Z,20.30
2018-08-22T05:35:06.106Z,20.30
2018-08-22T05:37:34.706Z,20.30
2018-08-22T05:40:03.237Z,20.30
2018-08-22T05:42:31.633Z,20.30
2018-08-22T05:45:00.036Z,20.30
2018-08-22T05:47:28.486Z,20.20
2018-08-22T05:49:56.890Z,20.30
2018-08-22T05:52:25.338Z,20.30
2018-08-22T05:54:53.836Z,20.30
2018-08-22T05:57:22.481Z,20.40
2018-08-22T05:59:50.886Z,20.40
2018-08-22T06:02:19.256Z,20.40
2018-08-22T06:04:47.654Z,20.40
2018-08-22T06:07:16.232Z,20.40
2018-08-22T06:09:44.656Z,20.40
2018-08-22T06:12:13.133Z,20.40
2018-08-22T06:14:41.650Z,20.50
2018-08-22T06:17:10.166Z,20.50
2018-08-22T06:19:38.673Z,20.50
2018-08-22T06:22:07.197Z,20.50
2018-08-22T06:24:35.560Z,20.50
2018-08-22T06:27:03.989Z,20.60
2018-08-22T06:29:32.672Z,20.60
2018-08-22T06:32:01.085Z,20.60
2018-08-22T06:34:29.482Z,20.60
2018-08-22T06:36:57.945Z,20.50
2018-08-22T06:39:26.333Z,20.60
2018-08-22T06:41:54.685Z,20.50
2018-08-22T06:44:23.190Z,20.60
2018-08-22T06:46:51.555Z,20.60
2018-08-22T06:49:19.988Z,20.60
2018-08-22T06:51:48.582Z,20.70
2018-08-22T06:54:17.042Z,20.70
2018-08-22T06:56:45.464Z,20.80
2018-08-22T06:59:13.875Z,20.90
2018-08-22T07:01:42.404Z,20.90
2018-08-22T07:04:10.920Z,20.90
2018-08-22T07:06:39.418Z,21.00
2018-08-22T07:09:09.584Z,21.10
2018-08-22T07:11:38.341Z,21.10
2018-08-22T07:14:07.381Z,21.20
2018-08-22T07:16:35.865Z,21.20
2018-08-22T07:19:04.418Z,21.30
2018-08-22T07:21:32.913Z,21.40
2018-08-22T07:24:01.427Z,21.40
2018-08-22T07:26:29.894Z,21.40
2018-08-22T07:28:58.443Z,21.60
2018-08-22T07:31:26.891Z,21.70
2018-08-22T07:33:55.334Z,21.70
2018-08-22T07:36:23.836Z,21.80
2018-08-22T07:38:52.416Z,21.80
2018-08-22T07:41:20.892Z,21.80
2018-08-22T07:43:49.393Z,21.90
2018-08-22T07:46:17.837Z,21.90
2018-08-22T07:48:46.281Z,22.10
2018-08-22T07:51:14.698Z,22.10
2018-08-22T07:53:43.207Z,22.20
2018-08-22T07:56:11.742Z,22.20
2018-08-22T07:58:40.177Z,22.30
2018-08-22T08:01:08.903Z,22.40
2018-08-22T08:03:37.348Z,22.50
2018-08-22T08:06:06.178Z,22.60
2018-08-22T08:08:34.615Z,22.60
2018-08-22T08:11:03.039Z,22.70
2018-08-22T08:13:31.472Z,22.80
2018-08-22T08:15:59.949Z,22.90
2018-08-22T08:18:28.404Z,22.90
2018-08-22T08:20:56.909Z,23.10
2018-08-22T08:23:25.356Z,23.00
2018-08-22T08:25:53.776Z,23.00
2018-08-22T08:28:22.602Z,23.00
2018-08-22T08:30:50.992Z,23.00
2018-08-22T08:33:19.453Z,23.10
2018-08-22T08:35:48.074Z,23.20
2018-08-22T08:38:16.357Z,23.40
2018-08-22T08:40:44.866Z,23.40
2018-08-22T08:43:13.534Z,23.50
2018-08-22T08:45:42.224Z,23.50
2018-08-22T08:48:10.727Z,23.70
2018-08-22T08:50:39.541Z,23.80
2018-08-22T08:53:08.286Z,23.90
2018-08-22T08:55:36.674Z,23.90
2018-08-22T08:58:05.105Z,24.00
2018-08-22T09:00:33.537Z,24.00
2018-08-22T09:03:01.979Z,24.10
2018-08-22T09:05:30.351Z,24.20
2018-08-22T09:07:58.892Z,24.30
2018-08-22T09:10:27.413Z,24.30
2018-08-22T09:12:56.604Z,24.40
2018-08-22T09:15:25.369Z,24.50
2018-08-22T09:18:02.266Z,24.60
2018-08-22T09:20:37.611Z,24.60
2018-08-22T09:23:08.600Z,24.70
2018-08-22T09:25:41.484Z,24.70
2018-08-22T09:28:10.068Z,24.80
2018-08-22T09:30:38.595Z,24.80
2018-08-22T09:33:08.298Z,24.80
2018-08-22T09:35:36.915Z,24.80
2018-08-22T09:38:06.846Z,25.00
2018-08-22T09:40:36.584Z,25.10
2018-08-22T09:43:05.335Z,25.20
2018-08-22T09:45:36.069Z,25.30
2018-08-22T09:48:06.221Z,25.50
2018-08-22T09:50:35.588Z,25.60
2018-08-22T09:53:06.350Z,25.70
2018-08-22T09:55:35.954Z,25.60
2018-08-22T09:58:08.173Z,25.60
2018-08-22T10:00:42.153Z,25.70
2018-08-22T10:03:10.719Z,25.80
2018-08-22T10:05:39.938Z,25.90
2018-08-22T10:08:09.760Z,26.00
2018-08-22T10:10:39.244Z,26.10
2018-08-22T10:13:07.797Z,26.30
2018-08-22T10:15:37.260Z,26.40
2018-08-22T10:18:06.402Z,26.60
2018-08-22T10:20:35.696Z,26.70
2018-08-22T10:23:05.403Z,26.70
2018-08-22T10:25:38.878Z,26.70
2018-08-22T10:28:07.531Z,26.80
2018-08-22T10:30:36.340Z,27.00
2018-08-22T10:33:04.952Z,27.10
2018-08-22T10:35:33.512Z,27.20
2018-08-22T10:38:02.621Z,27.20
2018-08-22T10:40:31.045Z,27.30
2018-08-22T10:42:59.454Z,27.40
2018-08-22T10:45:27.874Z,27.40
2018-08-22T10:47:56.442Z,27.40
2018-08-22T10:50:24.792Z,27.50
2018-08-22T10:52:54.491Z,27.60
2018-08-22T10:55:37.366Z,27.60
2018-08-22T10:58:06.238Z,27.70
2018-08-22T11:00:34.681Z,27.80
2018-08-22T11:03:03.222Z,28.00
2018-08-22T11:05:31.847Z,28.00
2018-08-22T11:08:00.314Z,28.10
2018-08-22T11:10:28.681Z,28.20
2018-08-22T11:12:57.139Z,28.30
2018-08-22T11:15:25.637Z,28.40
2018-08-22T11:17:54.859Z,28.50
2018-08-22T11:20:23.442Z,28.70
2018-08-22T11:23:04.593Z,28.80
2018-08-22T11:25:44.873Z,28.90
2018-08-22T11:28:25.352Z,28.90
2018-08-22T11:31:05.098Z,29.00
2018-08-22T11:33:44.792Z,29.10
2018-08-22T11:36:12.198Z,29.20
2018-08-22T11:38:44.632Z,29.30
2018-08-22T11:41:13.118Z,29.40
2018-08-22T11:43:41.646Z,29.40
2018-08-22T11:46:10.209Z,29.50
2018-08-22T11:48:38.686Z,29.60
2018-08-22T11:51:07.558Z,29.60
2018-08-22T11:53:35.956Z,29.50
2018-08-22T11:56:04.735Z,29.50
2018-08-22T11:58:33.470Z,29.50
2018-08-22T12:01:03.127Z,29.50
2018-08-22T12:03:32.373Z,29.60
2018-08-22T12:06:01.893Z,29.50
2018-08-22T12:08:31.474Z,29.60
2018-08-22T12:11:11.887Z,29.60
2018-08-22T12:13:40.779Z,29.70
2018-08-22T12:16:09.426Z,29.80
2018-08-22T12:18:39.238Z,29.90
2018-08-22T12:21:08.300Z,29.90
2018-08-22T12:23:36.806Z,29.90
2018-08-22T12:26:07.085Z,30.00
2018-08-22T12:28:35.750Z,29.90
2018-08-22T12:31:04.538Z,29.90
2018-08-22T12:33:33.041Z,29.90
2018-08-22T12:36:01.702Z,29.90
2018-08-22T12:38:30.377Z,30.00
2018-08-22T12:40:58.975Z,30.20
2018-08-22T12:43:29.034Z,30.20
2018-08-22T12:45:58.917Z,30.20
2018-08-22T12:48:27.880Z,30.20
2018-08-22T12:50:58.855Z,30.30
2018-08-22T12:53:31.376Z,30.30
2018-08-22T12:56:01.569Z,30.50
2018-08-22T12:58:41.788Z,30.60
2018-08-22T13:01:10.381Z,30.70
2018-08-22T13:03:42.280Z,30.80
2018-08-22T13:06:29.681Z,30.90
2018-08-22T13:08:59.078Z,30.90
2018-08-22T13:11:30.876Z,30.90
2018-08-22T13:14:04.439Z,31.00
2018-08-22T13:16:33.179Z,31.00
2018-08-22T13:19:06.562Z,30.80
2018-08-22T13:21:39.856Z,30.70
2018-08-22T13:24:08.737Z,30.60
2018-08-22T13:26:37.690Z,30.50
2018-08-22T13:29:07.731Z,30.50
2018-08-22T13:31:39.357Z,30.60
2018-08-22T13:34:09.975Z,30.60
2018-08-22T13:36:46.856Z,30.70
2018-08-22T13:39:16.817Z,30.70
2018-08-22T13:41:53.539Z,30.70
2018-08-22T13:44:22.144Z,30.70
2018-08-22T13:46:50.932Z,30.60
2018-08-22T13:49:19.628Z,30.30
2018-08-22T13:51:49.080Z,30.20
2018-08-22T13:54:17.633Z,30.00
2018-08-22T13:56:46.517Z,30.00
2018-08-22T13:59:15.157Z,30.00
2018-08-22T14:01:45.416Z,30.00
2018-08-22T14:04:14.007Z,30.10
2018-08-22T14:06:42.928Z,30.20
2018-08-22T14:09:13.173Z,30.30
2018-08-22T14:11:42.708Z,30.20
2018-08-22T14:14:13.534Z,30.30
2018-08-22T14:16:47.654Z,30.30
2018-08-22T14:19:16.188Z,30.40
2018-08-22T14:21:49.438Z,30.30
2018-08-22T14:24:18.289Z,30.30
2018-08-22T14:26:47.172Z,30.40
2018-08-22T14:29:18.562Z,30.30
2018-08-22T14:31:47.430Z,30.30
2018-08-22T14:34:16.301Z,30.30
2018-08-22T14:36:44.922Z,30.30
2018-08-22T14:39:14.334Z,30.40
2018-08-22T14:41:43.139Z,30.50
2018-08-22T14:44:12.276Z,30.60
2018-08-22T14:46:40.992Z,30.60
2018-08-22T14:49:09.659Z,30.50
2018-08-22T14:51:38.360Z,30.40
2018-08-22T14:54:07.029Z,30.30
2018-08-22T14:56:35.939Z,30.20
2018-08-22T14:59:05.634Z,30.20
2018-08-22T15:01:34.290Z,30.20
2018-08-22T15:04:03.179Z,30.30
2018-08-22T15:06:31.964Z,30.20
2018-08-22T15:09:10.787Z,30.20
2018-08-22T15:11:39.436Z,30.30
2018-08-22T15:14:08.932Z,30.40
2018-08-22T15:16:38.733Z,30.50
2018-08-22T15:19:12.730Z,30.50
2018-08-22T15:21:41.319Z,30.40
2018-08-22T15:24:10.836Z,30.40
2018-08-22T15:26:39.537Z,30.40
2018-08-22T15:29:08.692Z,30.30
2018-08-22T15:31:40.572Z,30.30
2018-08-22T15:34:10.453Z,30.30
2018-08-22T15:36:39.056Z,30.30
2018-08-22T15:39:10.399Z,30.30
2018-08-22T15:41:40.116Z,30.30
2018-08-22T15:44:09.529Z,30.30
2018-08-22T15:46:38.187Z,30.20
2018-08-22T15:49:06.761Z,30.20
2018-08-22T15:51:35.283Z,30.10
2018-08-22T15:54:09.541Z,30.00
2018-08-22T15:56:40.138Z,29.90
2018-08-22T15:59:09.480Z,30.00
2018-08-22T16:01:38.472Z,30.00
2018-08-22T16:04:07.810Z,30.00
2018-08-22T16:06:37.973Z,30.00
2018-08-22T16:09:15.479Z,30.00
2018-08-22T16:11:44.826Z,30.10
2018-08-22T16:14:13.357Z,30.00
2018-08-22T16:16:41.837Z,30.00
2018-08-22T16:19:10.419Z,30.00
2018-08-22T16:21:39.501Z,30.00
2018-08-22T16:24:09.051Z,30.00
2018-08-22T16:26:37.511Z,29.90
2018-08-22T16:29:07.730Z,30.00
2018-08-22T16:31:44.702Z,30.00
2018-08-22T16:34:14.490Z,30.00
2018-08-22T16:36:43.113Z,29.90
2018-08-22T16:39:12.928Z,29.90
2018-08-22T16:41:44.799Z,30.00
2018-08-22T16:44:13.628Z,30.00
2018-08-22T16:46:42.988Z,30.00
2018-08-22T16:49:11.537Z,30.00
2018-08-22T16:51:39.948Z,30.00
2018-08-22T16:54:08.532Z,29.90
2018-08-22T16:56:37.750Z,29.90
2018-08-22T16:59:09.479Z,29.90
2018-08-22T17:01:39.547Z,29.90
2018-08-22T17:04:08.928Z,29.90
2018-08-22T17:06:45.206Z,29.90
2018-08-22T17:09:13.926Z,29.90
2018-08-22T17:11:42.514Z,29.90
2018-08-22T17:14:11.812Z,29.80
2018-08-22T17:16:40.516Z,29.80
2018-08-22T17:19:09.042Z,29.70
2018-08-22T17:21:37.568Z,29.70
2018-08-22T17:24:06.304Z,29.60
2018-08-22T17:26:34.830Z,29.50
2018-08-22T17:29:03.389Z,29.40
2018-08-22T17:31:31.909Z,29.40
2018-08-22T17:34:01.778Z,29.20
2018-08-22T17:36:30.316Z,29.10
2018-08-22T17:38:59.801Z,29.00
2018-08-22T17:41:29.298Z,28.90
2018-08-22T17:44:05.070Z,28.80
2018-08-22T17:46:35.593Z,28.60
2018-08-22T17:49:04.098Z,28.50
2018-08-22T17:51:39.257Z,28.40
2018-08-22T17:54:08.164Z,28.30
2018-08-22T17:56:36.565Z,28.20
2018-08-22T17:59:05.025Z,28.10
2018-08-22T18:01:33.527Z,28.00
2018-08-22T18:04:02.048Z,28.00
2018-08-22T18:06:30.655Z,27.90
2018-08-22T18:08:59.187Z,27.90
2018-08-22T18:11:27.816Z,27.90
2018-08-22T18:13:57.570Z,27.80
2018-08-22T18:16:26.076Z,27.80
2018-08-22T18:18:54.493Z,27.70
2018-08-22T18:21:23.028Z,27.70
2018-08-22T18:23:57.704Z,27.70
2018-08-22T18:26:26.462Z,27.60
2018-08-22T18:28:55.110Z,27.60
2018-08-22T18:31:23.691Z,27.50
2018-08-22T18:33:59.231Z,27.50
2018-08-22T18:36:29.363Z,27.40
2018-08-22T18:39:10.477Z,27.30
2018-08-22T18:41:40.242Z,27.30
2018-08-22T18:44:08.723Z,27.20
2018-08-22T18:46:37.213Z,27.20
2018-08-22T18:49:06.198Z,27.10
2018-08-22T18:51:35.145Z,27.10
2018-08-22T18:54:04.312Z,27.10
2018-08-22T18:56:32.826Z,27.00
2018-08-22T18:59:12.521Z,27.00
2018-08-22T19:01:41.695Z,26.90
2018-08-22T19:04:10.267Z,26.80
2018-08-22T19:06:38.982Z,26.80
2018-08-22T19:09:07.616Z,26.70
2018-08-22T19:11:37.648Z,26.70
2018-08-22T19:14:06.222Z,26.60
2018-08-22T19:16:34.792Z,26.60
2018-08-22T19:19:03.796Z,26.60
2018-08-22T19:21:32.309Z,26.50
2018-08-22T19:24:05.716Z,26.50
2018-08-22T19:26:34.214Z,26.40
2018-08-22T19:29:04.741Z,26.30
2018-08-22T19:31:33.131Z,26.30
2018-08-22T19:34:01.629Z,26.20
2018-08-22T19:36:30.195Z,26.20
2018-08-22T19:38:58.730Z,26.10
2018-08-22T19:41:31.165Z,26.10
2018-08-22T19:43:59.774Z,26.10
2018-08-22T19:46:28.158Z,26.00
2018-08-22T19:48:56.817Z,26.00
2018-08-22T19:51:25.273Z,25.90
2018-08-22T19:54:02.124Z,25.90
2018-08-22T19:56:30.969Z,25.80
2018-08-22T19:58:59.701Z,25.70
2018-08-22T20:01:32.736Z,25.70
2018-08-22T20:04:01.129Z,25.70
2018-08-22T20:06:29.737Z,25.60
2018-08-22T20:08:59.392Z,25.60
2018-08-22T20:11:28.374Z,25.60
2018-08-22T20:14:00.586Z,25.50
2018-08-22T20:16:29.119Z,25.50
2018-08-22T20:18:59.709Z,25.40
2018-08-22T20:21:31.597Z,25.40
2018-08-22T20:24:00.642Z,25.30
2018-08-22T20:26:29.485Z,25.30
2018-08-22T20:28:59.160Z,25.30
2018-08-22T20:31:27.626Z,25.30
2018-08-22T20:34:09.872Z,25.20
2018-08-22T20:36:38.420Z,25.10
2018-08-22T20:39:09.157Z,25.10
2018-08-22T20:41:38.292Z,25.10
2018-08-22T20:44:12.634Z,25.10
2018-08-22T20:46:42.791Z,25.10
2018-08-22T20:49:11.394Z,25.00
2018-08-22T20:51:40.186Z,25.00
2018-08-22T20:54:09.847Z,24.90
2018-08-22T20:56:45.496Z,24.90
2018-08-22T20:59:14.993Z,24.90
2018-08-22T21:01:45.368Z,24.90
2018-08-22T21:04:13.872Z,24.80
2018-08-22T21:06:42.466Z,24.80
2018-08-22T21:09:12.354Z,24.70
2018-08-22T21:11:42.022Z,24.70
2018-08-22T21:14:10.507Z,24.70
2018-08-22T21:16:39.338Z,24.60
2018-08-22T21:19:08.090Z,24.60
2018-08-22T21:21:36.513Z,24.50
2018-08-22T21:24:05.020Z,24.50
2018-08-22T21:26:43.490Z,24.50
2018-08-22T21:29:11.960Z,24.40
2018-08-22T21:31:40.406Z,24.40
2018-08-22T21:34:13.122Z,24.40
2018-08-22T21:36:43.499Z,24.40
2018-08-22T21:39:17.300Z,24.30
2018-08-22T21:41:46.765Z,24.30
2018-08-22T21:44:18.934Z,24.20
2018-08-22T21:46:55.108Z,24.20
2018-08-22T21:49:24.024Z,24.20
2018-08-22T21:51:52.476Z,24.10
2018-08-22T21:54:20.854Z,24.10
2018-08-22T21:56:49.399Z,24.10
2018-08-22T21:59:17.809Z,24.10
2018-08-22T22:01:51.551Z,24.00
2018-08-22T22:04:26.202Z,24.00
2018-08-22T22:06:55.040Z,24.00
2018-08-22T22:09:23.500Z,24.00
2018-08-22T22:11:56.440Z,23.90
2018-08-22T22:14:26.691Z,23.90
2018-08-22T22:16:58.185Z,23.90
2018-08-22T22:19:27.594Z,23.90
2018-08-22T22:21:56.133Z,23.80
2018-08-22T22:24:24.642Z,23.80
2018-08-22T22:26:53.138Z,23.80
2018-08-22T22:29:24.647Z,23.70
2018-08-22T22:31:53.072Z,23.70
2018-08-22T22:34:21.526Z,23.70
2018-08-22T22:36:50.141Z,23.70
2018-08-22T22:39:35.836Z,23.70
2018-08-22T22:42:11.210Z,23.70
2018-08-22T22:44:40.214Z,23.60
2018-08-22T22:47:12.840Z,23.50
2018-08-22T22:49:41.264Z,23.60
2018-08-22T22:52:22.914Z,23.50
2018-08-22T22:54:53.735Z,23.50
2018-08-22T22:57:22.525Z,23.50
2018-08-22T22:59:51.220Z,23.40
2018-08-22T23:02:20.961Z,23.40
2018-08-22T23:04:51.215Z,23.40
2018-08-22T23:07:40.909Z,23.30
2018-08-22T23:10:10.582Z,23.30
2018-08-22T23:12:45.662Z,23.30
2018-08-22T23:15:15.991Z,23.30
2018-08-22T23:17:45.210Z,23.20
2018-08-22T23:20:38.287Z,23.20
2018-08-22T23:23:22.054Z,23.20
2018-08-22T23:25:50.649Z,23.20
2018-08-22T23:28:19.128Z,23.10
2018-08-22T23:30:47.522Z,23.10
2018-08-22T23:33:16.045Z,23.10
2018-08-22T23:35:44.449Z,23.10
2018-08-22T23:38:18.107Z,23.10
2018-08-22T23:40:47.969Z,23.10
2018-08-22T23:43:16.495Z,23.00
2018-08-22T23:45:49.373Z,23.00
2018-08-22T23:48:23.017Z,23.00
2018-08-22T23:50:55.849Z,23.00
2018-08-22T23:53:27.697Z,22.90
2018-08-22T23:56:10.039Z,22.90
2018-08-22T23:58:39.052Z,22.90
